sensor_id;sensor_type;location;lat;lon;timestamp;P1;durP1;ratioP1;P2;durP2;ratioP2
80842;SDS011;70255;53.686;10.778;2023-06-04T00:00:31;2.30;;;0.63;;
80842;SDS011;70255;53.686;10.778;2023-06-04T00:02:56;2.30;;;0.70;;
80842;SDS011;70255;53.686;10.778;2023-06-04T00:05:21;1.10;;;0.40;;
80842;SDS011;70255;53.686;10.778;2023-06-04T00:10:15;2.53;;;0.73;;
80842;SDS011;70255;53.686;10.778;2023-06-04T00:12:40;1.63;;;0.80;;
80842;SDS011;70255;53.686;10.778;2023-06-04T00:15:06;2.60;;;0.67;;
80842;SDS011;70255;53.686;10.778;2023-06-04T00:17:31;2.40;;;0.68;;
80842;SDS011;70255;53.686;10.778;2023-06-04T00:19:56;4.63;;;0.87;;
80842;SDS011;70255;53.686;10.778;2023-06-04T00:22:21;2.33;;;0.90;;
80842;SDS011;70255;53.686;10.778;2023-06-04T00:24:47;2.40;;;0.80;;
80842;SDS011;70255;53.686;10.778;2023-06-04T00:27:12;1.47;;;0.60;;
80842;SDS011;70255;53.686;10.778;2023-06-04T00:29:37;2.07;;;1.00;;
80842;SDS011;70255;53.686;10.778;2023-06-04T00:32:02;3.07;;;0.70;;
80842;SDS011;70255;53.686;10.778;2023-06-04T00:34:28;2.58;;;0.75;;
80842;SDS011;70255;53.686;10.778;2023-06-04T00:36:53;2.00;;;0.57;;
80842;SDS011;70255;53.686;10.778;2023-06-04T00:39:18;1.80;;;0.60;;
80842;SDS011;70255;53.686;10.778;2023-06-04T00:41:43;1.80;;;0.60;;
80842;SDS011;70255;53.686;10.778;2023-06-04T00:44:09;3.13;;;0.90;;
80842;SDS011;70255;53.686;10.778;2023-06-04T00:46:36;1.90;;;0.70;;
80842;SDS011;70255;53.686;10.778;2023-06-04T00:49:02;1.73;;;0.68;;
80842;SDS011;70255;53.686;10.778;2023-06-04T00:51:27;2.22;;;0.80;;
80842;SDS011;70255;53.686;10.778;2023-06-04T00:53:55;2.53;;;1.08;;
80842;SDS011;70255;53.686;10.778;2023-06-04T00:56:20;2.00;;;0.83;;
80842;SDS011;70255;53.686;10.778;2023-06-04T00:58:45;1.77;;;0.77;;
80842;SDS011;70255;53.686;10.778;2023-06-04T01:03:46;1.80;;;0.80;;
80842;SDS011;70255;53.686;10.778;2023-06-04T01:11:12;2.28;;;0.93;;
80842;SDS011;70255;53.686;10.778;2023-06-04T01:13:37;2.93;;;1.00;;
80842;SDS011;70255;53.686;10.778;2023-06-04T01:16:03;2.17;;;1.00;;
80842;SDS011;70255;53.686;10.778;2023-06-04T01:18:28;1.95;;;0.85;;
80842;SDS011;70255;53.686;10.778;2023-06-04T01:20:59;2.65;;;0.93;;
80842;SDS011;70255;53.686;10.778;2023-06-04T01:23:28;1.92;;;0.50;;
80842;SDS011;70255;53.686;10.778;2023-06-04T01:25:59;3.45;;;1.30;;
80842;SDS011;70255;53.686;10.778;2023-06-04T01:28:27;5.22;;;1.05;;
80842;SDS011;70255;53.686;10.778;2023-06-04T01:30:52;3.63;;;0.90;;
80842;SDS011;70255;53.686;10.778;2023-06-04T01:33:18;1.85;;;0.90;;
80842;SDS011;70255;53.686;10.778;2023-06-04T01:35:44;2.95;;;0.98;;
80842;SDS011;70255;53.686;10.778;2023-06-04T01:38:09;1.90;;;0.70;;
80842;SDS011;70255;53.686;10.778;2023-06-04T01:40:35;3.20;;;1.10;;
80842;SDS011;70255;53.686;10.778;2023-06-04T01:43:00;2.47;;;0.85;;
80842;SDS011;70255;53.686;10.778;2023-06-04T01:45:26;1.83;;;0.75;;
80842;SDS011;70255;53.686;10.778;2023-06-04T01:47:52;1.60;;;0.65;;
80842;SDS011;70255;53.686;10.778;2023-06-04T01:50:17;1.83;;;0.80;;
80842;SDS011;70255;53.686;10.778;2023-06-04T01:52:43;2.40;;;1.17;;
80842;SDS011;70255;53.686;10.778;2023-06-04T01:55:09;1.98;;;0.65;;
80842;SDS011;70255;53.686;10.778;2023-06-04T01:57:34;1.80;;;0.77;;
80842;SDS011;70255;53.686;10.778;2023-06-04T02:00:06;2.42;;;0.90;;
80842;SDS011;70255;53.686;10.778;2023-06-04T02:02:36;2.33;;;0.60;;
80842;SDS011;70255;53.686;10.778;2023-06-04T02:05:02;2.10;;;0.95;;
80842;SDS011;70255;53.686;10.778;2023-06-04T02:07:27;1.80;;;0.80;;
80842;SDS011;70255;53.686;10.778;2023-06-04T02:09:52;2.07;;;0.87;;
80842;SDS011;70255;53.686;10.778;2023-06-04T02:12:18;2.20;;;0.80;;
80842;SDS011;70255;53.686;10.778;2023-06-04T02:14:43;3.58;;;1.05;;
80842;SDS011;70255;53.686;10.778;2023-06-04T02:17:10;2.75;;;0.88;;
80842;SDS011;70255;53.686;10.778;2023-06-04T02:19:41;1.98;;;0.65;;
80842;SDS011;70255;53.686;10.778;2023-06-04T02:22:11;2.38;;;0.65;;
80842;SDS011;70255;53.686;10.778;2023-06-04T02:24:37;2.40;;;0.80;;
80842;SDS011;70255;53.686;10.778;2023-06-04T02:27:03;2.15;;;0.90;;
80842;SDS011;70255;53.686;10.778;2023-06-04T02:29:29;3.30;;;1.00;;
80842;SDS011;70255;53.686;10.778;2023-06-04T02:31:54;1.63;;;0.80;;
80842;SDS011;70255;53.686;10.778;2023-06-04T02:34:19;3.43;;;0.97;;
80842;SDS011;70255;53.686;10.778;2023-06-04T02:36:44;1.97;;;0.67;;
80842;SDS011;70255;53.686;10.778;2023-06-04T02:39:13;1.73;;;0.63;;
80842;SDS011;70255;53.686;10.778;2023-06-04T02:41:39;2.25;;;1.00;;
80842;SDS011;70255;53.686;10.778;2023-06-04T02:44:04;2.73;;;0.67;;
80842;SDS011;70255;53.686;10.778;2023-06-04T02:46:29;1.80;;;0.60;;
80842;SDS011;70255;53.686;10.778;2023-06-04T02:48:54;2.13;;;0.70;;
80842;SDS011;70255;53.686;10.778;2023-06-04T02:51:20;1.77;;;0.53;;
80842;SDS011;70255;53.686;10.778;2023-06-04T02:53:45;2.00;;;0.73;;
80842;SDS011;70255;53.686;10.778;2023-06-04T02:56:11;1.80;;;0.65;;
80842;SDS011;70255;53.686;10.778;2023-06-04T02:58:36;2.25;;;0.75;;
80842;SDS011;70255;53.686;10.778;2023-06-04T03:01:05;2.25;;;0.88;;
80842;SDS011;70255;53.686;10.778;2023-06-04T03:03:31;1.90;;;0.80;;
80842;SDS011;70255;53.686;10.778;2023-06-04T03:05:58;1.77;;;0.93;;
80842;SDS011;70255;53.686;10.778;2023-06-04T03:08:25;1.92;;;0.93;;
80842;SDS011;70255;53.686;10.778;2023-06-04T03:10:50;2.73;;;0.97;;
80842;SDS011;70255;53.686;10.778;2023-06-04T03:13:15;2.00;;;0.80;;
80842;SDS011;70255;53.686;10.778;2023-06-04T03:15:40;2.83;;;0.90;;
80842;SDS011;70255;53.686;10.778;2023-06-04T03:18:06;2.00;;;0.90;;
80842;SDS011;70255;53.686;10.778;2023-06-04T03:20:31;3.73;;;0.97;;
80842;SDS011;70255;53.686;10.778;2023-06-04T03:23:00;2.53;;;1.13;;
80842;SDS011;70255;53.686;10.778;2023-06-04T03:25:25;1.80;;;0.80;;
80842;SDS011;70255;53.686;10.778;2023-06-04T03:27:50;2.60;;;1.10;;
80842;SDS011;70255;53.686;10.778;2023-06-04T03:30:15;3.30;;;1.10;;
80842;SDS011;70255;53.686;10.778;2023-06-04T03:32:41;2.40;;;1.13;;
80842;SDS011;70255;53.686;10.778;2023-06-04T03:35:06;2.30;;;0.93;;
80842;SDS011;70255;53.686;10.778;2023-06-04T03:37:32;2.97;;;1.25;;
80842;SDS011;70255;53.686;10.778;2023-06-04T03:39:57;2.10;;;0.93;;
80842;SDS011;70255;53.686;10.778;2023-06-04T03:42:23;2.87;;;1.13;;
80842;SDS011;70255;53.686;10.778;2023-06-04T03:44:48;3.73;;;1.53;;
80842;SDS011;70255;53.686;10.778;2023-06-04T03:47:13;2.33;;;1.10;;
80842;SDS011;70255;53.686;10.778;2023-06-04T03:49:38;3.70;;;1.20;;
80842;SDS011;70255;53.686;10.778;2023-06-04T03:52:04;2.58;;;1.33;;
80842;SDS011;70255;53.686;10.778;2023-06-04T03:54:29;2.67;;;1.30;;
80842;SDS011;70255;53.686;10.778;2023-06-04T03:56:55;3.35;;;1.38;;
80842;SDS011;70255;53.686;10.778;2023-06-04T03:59:20;3.67;;;1.10;;
80842;SDS011;70255;53.686;10.778;2023-06-04T04:01:46;3.50;;;1.27;;
80842;SDS011;70255;53.686;10.778;2023-06-04T04:04:11;2.63;;;1.33;;
80842;SDS011;70255;53.686;10.778;2023-06-04T04:06:36;3.37;;;1.60;;
80842;SDS011;70255;53.686;10.778;2023-06-04T04:09:02;3.70;;;1.60;;
80842;SDS011;70255;53.686;10.778;2023-06-04T04:11:28;3.33;;;1.42;;
80842;SDS011;70255;53.686;10.778;2023-06-04T04:13:53;2.90;;;1.40;;
80842;SDS011;70255;53.686;10.778;2023-06-04T04:16:19;2.47;;;1.20;;
80842;SDS011;70255;53.686;10.778;2023-06-04T04:18:44;3.03;;;1.40;;
80842;SDS011;70255;53.686;10.778;2023-06-04T04:21:09;4.28;;;1.67;;
80842;SDS011;70255;53.686;10.778;2023-06-04T04:23:37;3.42;;;1.88;;
80842;SDS011;70255;53.686;10.778;2023-06-04T04:26:02;3.00;;;1.40;;
80842;SDS011;70255;53.686;10.778;2023-06-04T04:28:27;3.87;;;1.40;;
80842;SDS011;70255;53.686;10.778;2023-06-04T04:30:56;3.35;;;1.45;;
80842;SDS011;70255;53.686;10.778;2023-06-04T04:33:22;4.93;;;1.60;;
80842;SDS011;70255;53.686;10.778;2023-06-04T04:35:49;2.58;;;1.38;;
80842;SDS011;70255;53.686;10.778;2023-06-04T04:38:15;4.63;;;1.98;;
80842;SDS011;70255;53.686;10.778;2023-06-04T04:40:42;2.80;;;1.40;;
80842;SDS011;70255;53.686;10.778;2023-06-04T04:43:07;3.22;;;1.30;;
80842;SDS011;70255;53.686;10.778;2023-06-04T04:45:32;2.57;;;1.20;;
80842;SDS011;70255;53.686;10.778;2023-06-04T04:47:57;3.60;;;1.37;;
80842;SDS011;70255;53.686;10.778;2023-06-04T04:50:23;3.33;;;1.37;;
80842;SDS011;70255;53.686;10.778;2023-06-04T04:52:48;3.53;;;1.30;;
80842;SDS011;70255;53.686;10.778;2023-06-04T04:55:13;3.97;;;1.20;;
80842;SDS011;70255;53.686;10.778;2023-06-04T04:57:38;3.43;;;1.27;;
80842;SDS011;70255;53.686;10.778;2023-06-04T05:00:04;2.97;;;1.30;;
80842;SDS011;70255;53.686;10.778;2023-06-04T05:02:35;2.83;;;1.50;;
80842;SDS011;70255;53.686;10.778;2023-06-04T05:05:01;2.88;;;1.67;;
80842;SDS011;70255;53.686;10.778;2023-06-04T05:07:27;3.03;;;1.35;;
80842;SDS011;70255;53.686;10.778;2023-06-04T05:09:52;4.17;;;1.53;;
80842;SDS011;70255;53.686;10.778;2023-06-04T05:12:17;3.37;;;1.20;;
80842;SDS011;70255;53.686;10.778;2023-06-04T05:14:43;2.45;;;1.30;;
80842;SDS011;70255;53.686;10.778;2023-06-04T05:17:08;3.10;;;1.42;;
80842;SDS011;70255;53.686;10.778;2023-06-04T05:19:35;2.63;;;1.30;;
80842;SDS011;70255;53.686;10.778;2023-06-04T05:22:02;3.25;;;1.50;;
80842;SDS011;70255;53.686;10.778;2023-06-04T05:24:27;4.60;;;1.63;;
80842;SDS011;70255;53.686;10.778;2023-06-04T05:26:53;4.05;;;1.52;;
80842;SDS011;70255;53.686;10.778;2023-06-04T05:29:19;3.10;;;1.60;;
80842;SDS011;70255;53.686;10.778;2023-06-04T05:31:45;4.65;;;1.73;;
80842;SDS011;70255;53.686;10.778;2023-06-04T05:34:10;4.30;;;2.03;;
80842;SDS011;70255;53.686;10.778;2023-06-04T05:36:41;4.07;;;1.85;;
80842;SDS011;70255;53.686;10.778;2023-06-04T05:39:06;3.45;;;1.95;;
80842;SDS011;70255;53.686;10.778;2023-06-04T05:41:31;4.03;;;2.13;;
80842;SDS011;70255;53.686;10.778;2023-06-04T05:43:57;3.78;;;1.80;;
80842;SDS011;70255;53.686;10.778;2023-06-04T05:46:22;4.80;;;2.30;;
80842;SDS011;70255;53.686;10.778;2023-06-04T05:48:47;4.33;;;1.87;;
80842;SDS011;70255;53.686;10.778;2023-06-04T05:51:13;2.70;;;1.67;;
80842;SDS011;70255;53.686;10.778;2023-06-04T05:53:39;4.40;;;2.00;;
80842;SDS011;70255;53.686;10.778;2023-06-04T05:56:04;3.53;;;1.88;;
80842;SDS011;70255;53.686;10.778;2023-06-04T05:58:29;5.80;;;2.10;;
80842;SDS011;70255;53.686;10.778;2023-06-04T06:00:54;3.83;;;1.80;;
80842;SDS011;70255;53.686;10.778;2023-06-04T06:03:20;3.40;;;1.80;;
80842;SDS011;70255;53.686;10.778;2023-06-04T06:05:45;4.47;;;1.80;;
80842;SDS011;70255;53.686;10.778;2023-06-04T06:08:10;3.70;;;1.80;;
80842;SDS011;70255;53.686;10.778;2023-06-04T06:10:35;2.93;;;1.63;;
80842;SDS011;70255;53.686;10.778;2023-06-04T06:13:01;3.72;;;1.80;;
80842;SDS011;70255;53.686;10.778;2023-06-04T06:15:26;2.80;;;1.57;;
80842;SDS011;70255;53.686;10.778;2023-06-04T06:17:52;3.53;;;1.85;;
80842;SDS011;70255;53.686;10.778;2023-06-04T06:20:19;4.47;;;1.70;;
80842;SDS011;70255;53.686;10.778;2023-06-04T06:22:47;3.28;;;1.40;;
80842;SDS011;70255;53.686;10.778;2023-06-04T06:25:12;3.25;;;1.63;;
80842;SDS011;70255;53.686;10.778;2023-06-04T06:27:39;4.53;;;2.10;;
80842;SDS011;70255;53.686;10.778;2023-06-04T06:30:05;3.38;;;1.55;;
80842;SDS011;70255;53.686;10.778;2023-06-04T06:32:30;3.60;;;1.30;;
80842;SDS011;70255;53.686;10.778;2023-06-04T06:34:56;3.97;;;1.50;;
80842;SDS011;70255;53.686;10.778;2023-06-04T06:37:21;3.43;;;1.70;;
80842;SDS011;70255;53.686;10.778;2023-06-04T06:39:46;3.13;;;1.60;;
80842;SDS011;70255;53.686;10.778;2023-06-04T06:42:11;4.07;;;1.30;;
80842;SDS011;70255;53.686;10.778;2023-06-04T06:44:37;2.25;;;1.10;;
80842;SDS011;70255;53.686;10.778;2023-06-04T06:47:02;3.87;;;1.93;;
80842;SDS011;70255;53.686;10.778;2023-06-04T06:49:28;3.92;;;1.27;;
80842;SDS011;70255;53.686;10.778;2023-06-04T06:51:53;2.23;;;1.00;;
80842;SDS011;70255;53.686;10.778;2023-06-04T06:54:18;2.00;;;0.90;;
80842;SDS011;70255;53.686;10.778;2023-06-04T06:56:46;3.78;;;1.30;;
80842;SDS011;70255;53.686;10.778;2023-06-04T06:59:13;2.88;;;1.08;;
80842;SDS011;70255;53.686;10.778;2023-06-04T07:01:38;2.23;;;0.90;;
80842;SDS011;70255;53.686;10.778;2023-06-04T07:04:04;2.13;;;0.50;;
80842;SDS011;70255;53.686;10.778;2023-06-04T07:06:29;3.20;;;1.30;;
80842;SDS011;70255;53.686;10.778;2023-06-04T07:08:54;1.75;;;0.85;;
80842;SDS011;70255;53.686;10.778;2023-06-04T07:11:20;3.03;;;0.90;;
80842;SDS011;70255;53.686;10.778;2023-06-04T07:13:46;1.45;;;0.60;;
80842;SDS011;70255;53.686;10.778;2023-06-04T07:16:12;1.67;;;0.70;;
80842;SDS011;70255;53.686;10.778;2023-06-04T07:18:37;1.97;;;0.83;;
80842;SDS011;70255;53.686;10.778;2023-06-04T07:21:02;5.40;;;0.80;;
80842;SDS011;70255;53.686;10.778;2023-06-04T07:23:27;2.63;;;0.70;;
80842;SDS011;70255;53.686;10.778;2023-06-04T07:25:53;1.23;;;0.50;;
80842;SDS011;70255;53.686;10.778;2023-06-04T07:28:18;1.73;;;0.60;;
80842;SDS011;70255;53.686;10.778;2023-06-04T07:30:46;3.17;;;0.70;;
80842;SDS011;70255;53.686;10.778;2023-06-04T07:33:12;1.80;;;1.00;;
80842;SDS011;70255;53.686;10.778;2023-06-04T07:35:37;2.33;;;0.70;;
80842;SDS011;70255;53.686;10.778;2023-06-04T07:38:02;1.40;;;0.70;;
80842;SDS011;70255;53.686;10.778;2023-06-04T07:40:27;1.73;;;0.67;;
80842;SDS011;70255;53.686;10.778;2023-06-04T07:42:53;1.77;;;0.88;;
80842;SDS011;70255;53.686;10.778;2023-06-04T07:45:18;1.80;;;0.90;;
80842;SDS011;70255;53.686;10.778;2023-06-04T07:47:43;1.67;;;0.90;;
80842;SDS011;70255;53.686;10.778;2023-06-04T07:50:09;3.95;;;0.98;;
80842;SDS011;70255;53.686;10.778;2023-06-04T07:52:34;3.33;;;0.90;;
80842;SDS011;70255;53.686;10.778;2023-06-04T07:55:00;2.45;;;0.98;;
80842;SDS011;70255;53.686;10.778;2023-06-04T07:57:25;2.55;;;0.77;;
80842;SDS011;70255;53.686;10.778;2023-06-04T07:59:50;3.65;;;1.10;;
80842;SDS011;70255;53.686;10.778;2023-06-04T08:02:16;2.22;;;0.63;;
80842;SDS011;70255;53.686;10.778;2023-06-04T08:04:42;2.05;;;0.90;;
80842;SDS011;70255;53.686;10.778;2023-06-04T08:07:07;3.87;;;1.40;;
80842;SDS011;70255;53.686;10.778;2023-06-04T08:09:32;3.10;;;1.10;;
80842;SDS011;70255;53.686;10.778;2023-06-04T08:11:58;2.03;;;1.00;;
80842;SDS011;70255;53.686;10.778;2023-06-04T08:14:23;2.13;;;0.98;;
80842;SDS011;70255;53.686;10.778;2023-06-04T08:16:49;2.47;;;0.80;;
80842;SDS011;70255;53.686;10.778;2023-06-04T08:19:14;1.77;;;0.80;;
80842;SDS011;70255;53.686;10.778;2023-06-04T08:21:40;1.85;;;0.80;;
80842;SDS011;70255;53.686;10.778;2023-06-04T08:24:08;2.30;;;1.10;;
80842;SDS011;70255;53.686;10.778;2023-06-04T08:26:33;2.28;;;0.82;;
80842;SDS011;70255;53.686;10.778;2023-06-04T08:28:58;3.13;;;0.90;;
80842;SDS011;70255;53.686;10.778;2023-06-04T08:31:24;2.43;;;1.03;;
80842;SDS011;70255;53.686;10.778;2023-06-04T08:33:49;3.00;;;0.60;;
80842;SDS011;70255;53.686;10.778;2023-06-04T08:36:14;1.77;;;0.70;;
80842;SDS011;70255;53.686;10.778;2023-06-04T08:38:42;1.55;;;0.65;;
80842;SDS011;70255;53.686;10.778;2023-06-04T08:41:30;2.97;;;0.60;;
80842;SDS011;70255;53.686;10.778;2023-06-04T08:43:56;1.48;;;0.60;;
80842;SDS011;70255;53.686;10.778;2023-06-04T08:46:22;2.70;;;0.80;;
80842;SDS011;70255;53.686;10.778;2023-06-04T08:48:48;2.30;;;0.90;;
80842;SDS011;70255;53.686;10.778;2023-06-04T08:51:14;4.10;;;0.80;;
80842;SDS011;70255;53.686;10.778;2023-06-04T08:53:40;1.88;;;0.80;;
80842;SDS011;70255;53.686;10.778;2023-06-04T08:56:06;2.17;;;0.73;;
80842;SDS011;70255;53.686;10.778;2023-06-04T08:58:32;2.25;;;1.13;;
80842;SDS011;70255;53.686;10.778;2023-06-04T09:00:58;2.38;;;0.80;;
80842;SDS011;70255;53.686;10.778;2023-06-04T09:03:24;1.65;;;0.80;;
80842;SDS011;70255;53.686;10.778;2023-06-04T09:05:51;3.95;;;0.88;;
80842;SDS011;70255;53.686;10.778;2023-06-04T09:08:17;3.15;;;0.82;;
80842;SDS011;70255;53.686;10.778;2023-06-04T09:10:43;2.08;;;0.90;;
80842;SDS011;70255;53.686;10.778;2023-06-04T09:13:09;1.85;;;1.02;;
80842;SDS011;70255;53.686;10.778;2023-06-04T09:15:35;2.40;;;0.82;;
80842;SDS011;70255;53.686;10.778;2023-06-04T09:18:00;6.20;;;1.00;;
80842;SDS011;70255;53.686;10.778;2023-06-04T09:20:26;3.13;;;0.90;;
80842;SDS011;70255;53.686;10.778;2023-06-04T09:22:52;1.90;;;0.70;;
80842;SDS011;70255;53.686;10.778;2023-06-04T09:25:20;1.27;;;0.70;;
80842;SDS011;70255;53.686;10.778;2023-06-04T09:27:46;2.22;;;1.08;;
80842;SDS011;70255;53.686;10.778;2023-06-04T09:30:11;1.50;;;0.60;;
80842;SDS011;70255;53.686;10.778;2023-06-04T09:32:37;2.88;;;1.00;;
80842;SDS011;70255;53.686;10.778;2023-06-04T09:35:10;1.70;;;0.90;;
80842;SDS011;70255;53.686;10.778;2023-06-04T09:37:36;2.15;;;0.90;;
80842;SDS011;70255;53.686;10.778;2023-06-04T09:40:01;3.73;;;1.10;;
80842;SDS011;70255;53.686;10.778;2023-06-04T09:44:55;2.63;;;1.10;;
80842;SDS011;70255;53.686;10.778;2023-06-04T09:47:20;3.43;;;0.83;;
80842;SDS011;70255;53.686;10.778;2023-06-04T09:49:45;1.90;;;0.87;;
80842;SDS011;70255;53.686;10.778;2023-06-04T09:52:11;2.47;;;0.80;;
80842;SDS011;70255;53.686;10.778;2023-06-04T09:54:37;2.30;;;1.00;;
80842;SDS011;70255;53.686;10.778;2023-06-04T09:57:04;1.27;;;0.70;;
80842;SDS011;70255;53.686;10.778;2023-06-04T09:59:31;2.08;;;1.00;;
80842;SDS011;70255;53.686;10.778;2023-06-04T10:01:57;3.03;;;0.80;;
80842;SDS011;70255;53.686;10.778;2023-06-04T10:04:23;2.00;;;0.75;;
80842;SDS011;70255;53.686;10.778;2023-06-04T10:06:49;2.30;;;0.80;;
80842;SDS011;70255;53.686;10.778;2023-06-04T10:09:15;2.65;;;1.00;;
80842;SDS011;70255;53.686;10.778;2023-06-04T10:11:42;4.63;;;0.98;;
80842;SDS011;70255;53.686;10.778;2023-06-04T10:14:14;2.38;;;0.70;;
80842;SDS011;70255;53.686;10.778;2023-06-04T10:16:41;4.30;;;0.90;;
80842;SDS011;70255;53.686;10.778;2023-06-04T10:19:07;3.13;;;0.80;;
80842;SDS011;70255;53.686;10.778;2023-06-04T10:21:32;3.67;;;1.02;;
80842;SDS011;70255;53.686;10.778;2023-06-04T10:24:00;3.95;;;1.20;;
80842;SDS011;70255;53.686;10.778;2023-06-04T10:26:25;4.43;;;1.05;;
80842;SDS011;70255;53.686;10.778;2023-06-04T10:28:51;3.72;;;1.00;;
80842;SDS011;70255;53.686;10.778;2023-06-04T10:31:17;3.25;;;0.90;;
80842;SDS011;70255;53.686;10.778;2023-06-04T10:33:42;2.73;;;1.00;;
80842;SDS011;70255;53.686;10.778;2023-06-04T10:36:18;3.85;;;1.10;;
80842;SDS011;70255;53.686;10.778;2023-06-04T10:38:47;2.95;;;0.93;;
80842;SDS011;70255;53.686;10.778;2023-06-04T10:41:15;3.70;;;1.10;;
80842;SDS011;70255;53.686;10.778;2023-06-04T10:43:42;2.25;;;0.95;;
80842;SDS011;70255;53.686;10.778;2023-06-04T10:46:13;2.60;;;0.90;;
80842;SDS011;70255;53.686;10.778;2023-06-04T10:48:45;3.05;;;1.08;;
80842;SDS011;70255;53.686;10.778;2023-06-04T10:51:11;2.55;;;1.00;;
80842;SDS011;70255;53.686;10.778;2023-06-04T10:53:36;3.97;;;1.03;;
80842;SDS011;70255;53.686;10.778;2023-06-04T10:56:02;3.50;;;1.08;;
80842;SDS011;70255;53.686;10.778;2023-06-04T10:58:31;2.30;;;0.83;;
80842;SDS011;70255;53.686;10.778;2023-06-04T11:00:57;3.13;;;1.10;;
80842;SDS011;70255;53.686;10.778;2023-06-04T11:03:22;3.63;;;1.30;;
80842;SDS011;70255;53.686;10.778;2023-06-04T11:05:47;3.07;;;0.90;;
80842;SDS011;70255;53.686;10.778;2023-06-04T11:08:13;2.90;;;0.98;;
80842;SDS011;70255;53.686;10.778;2023-06-04T11:10:40;3.05;;;1.20;;
80842;SDS011;70255;53.686;10.778;2023-06-04T11:13:05;4.00;;;1.08;;
80842;SDS011;70255;53.686;10.778;2023-06-04T11:15:41;3.50;;;1.20;;
80842;SDS011;70255;53.686;10.778;2023-06-04T11:18:06;6.35;;;1.13;;
80842;SDS011;70255;53.686;10.778;2023-06-04T11:20:31;2.20;;;0.97;;
80842;SDS011;70255;53.686;10.778;2023-06-04T11:22:57;1.70;;;1.00;;
80842;SDS011;70255;53.686;10.778;2023-06-04T11:25:26;3.80;;;1.10;;
80842;SDS011;70255;53.686;10.778;2023-06-04T11:27:53;2.97;;;1.00;;
80842;SDS011;70255;53.686;10.778;2023-06-04T11:30:20;3.55;;;1.10;;
80842;SDS011;70255;53.686;10.778;2023-06-04T11:32:45;3.10;;;1.05;;
80842;SDS011;70255;53.686;10.778;2023-06-04T11:35:11;3.30;;;0.98;;
80842;SDS011;70255;53.686;10.778;2023-06-04T11:37:36;2.53;;;0.75;;
80842;SDS011;70255;53.686;10.778;2023-06-04T11:40:02;5.65;;;1.48;;
80842;SDS011;70255;53.686;10.778;2023-06-04T11:44:55;3.10;;;1.13;;
80842;SDS011;70255;53.686;10.778;2023-06-04T11:47:20;2.88;;;0.95;;
80842;SDS011;70255;53.686;10.778;2023-06-04T11:49:46;3.67;;;1.00;;
80842;SDS011;70255;53.686;10.778;2023-06-04T11:52:11;2.97;;;0.95;;
80842;SDS011;70255;53.686;10.778;2023-06-04T11:54:36;4.80;;;1.20;;
80842;SDS011;70255;53.686;10.778;2023-06-04T11:57:03;2.65;;;0.95;;
80842;SDS011;70255;53.686;10.778;2023-06-04T11:59:30;3.63;;;0.77;;
80842;SDS011;70255;53.686;10.778;2023-06-04T12:01:56;2.97;;;1.10;;
80842;SDS011;70255;53.686;10.778;2023-06-04T12:04:22;2.20;;;1.08;;
80842;SDS011;70255;53.686;10.778;2023-06-04T12:06:54;6.35;;;0.90;;
80842;SDS011;70255;53.686;10.778;2023-06-04T12:09:20;2.92;;;1.13;;
80842;SDS011;70255;53.686;10.778;2023-06-04T12:11:45;3.95;;;1.08;;
80842;SDS011;70255;53.686;10.778;2023-06-04T12:14:14;3.57;;;1.03;;
80842;SDS011;70255;53.686;10.778;2023-06-04T12:16:40;2.30;;;1.00;;
80842;SDS011;70255;53.686;10.778;2023-06-04T12:19:09;2.35;;;1.00;;
80842;SDS011;70255;53.686;10.778;2023-06-04T12:21:34;2.28;;;0.90;;
80842;SDS011;70255;53.686;10.778;2023-06-04T12:26:32;3.67;;;1.10;;
80842;SDS011;70255;53.686;10.778;2023-06-04T12:29:02;2.75;;;0.90;;
80842;SDS011;70255;53.686;10.778;2023-06-04T12:31:31;2.13;;;0.90;;
80842;SDS011;70255;53.686;10.778;2023-06-04T12:34:00;3.13;;;1.10;;
80842;SDS011;70255;53.686;10.778;2023-06-04T12:36:25;2.53;;;1.00;;
80842;SDS011;70255;53.686;10.778;2023-06-04T12:38:51;2.20;;;0.93;;
80842;SDS011;70255;53.686;10.778;2023-06-04T12:41:16;3.03;;;1.20;;
80842;SDS011;70255;53.686;10.778;2023-06-04T12:43:41;5.15;;;1.10;;
80842;SDS011;70255;53.686;10.778;2023-06-04T12:46:07;4.18;;;1.38;;
80842;SDS011;70255;53.686;10.778;2023-06-04T12:48:32;1.93;;;0.83;;
80842;SDS011;70255;53.686;10.778;2023-06-04T12:50:58;2.10;;;0.90;;
80842;SDS011;70255;53.686;10.778;2023-06-04T12:53:23;3.80;;;1.03;;
80842;SDS011;70255;53.686;10.778;2023-06-04T12:55:48;3.10;;;1.00;;
80842;SDS011;70255;53.686;10.778;2023-06-04T12:58:14;6.17;;;1.10;;
80842;SDS011;70255;53.686;10.778;2023-06-04T13:00:39;1.95;;;1.00;;
80842;SDS011;70255;53.686;10.778;2023-06-04T13:03:04;2.83;;;1.00;;
80842;SDS011;70255;53.686;10.778;2023-06-04T13:05:30;3.10;;;1.13;;
80842;SDS011;70255;53.686;10.778;2023-06-04T13:07:56;3.70;;;1.10;;
80842;SDS011;70255;53.686;10.778;2023-06-04T13:10:21;2.17;;;1.02;;
80842;SDS011;70255;53.686;10.778;2023-06-04T13:12:46;2.50;;;1.20;;
80842;SDS011;70255;53.686;10.778;2023-06-04T13:15:11;3.80;;;1.20;;
80842;SDS011;70255;53.686;10.778;2023-06-04T13:17:37;2.93;;;0.93;;
80842;SDS011;70255;53.686;10.778;2023-06-04T13:20:02;2.47;;;1.10;;
80842;SDS011;70255;53.686;10.778;2023-06-04T13:22:28;2.28;;;1.00;;
80842;SDS011;70255;53.686;10.778;2023-06-04T13:24:53;2.97;;;0.87;;
80842;SDS011;70255;53.686;10.778;2023-06-04T13:27:18;2.40;;;0.70;;
80842;SDS011;70255;53.686;10.778;2023-06-04T13:29:44;2.83;;;1.17;;
80842;SDS011;70255;53.686;10.778;2023-06-04T13:32:09;3.25;;;1.23;;
80842;SDS011;70255;53.686;10.778;2023-06-04T13:34:35;2.95;;;1.02;;
80842;SDS011;70255;53.686;10.778;2023-06-04T13:37:00;3.63;;;1.00;;
80842;SDS011;70255;53.686;10.778;2023-06-04T13:39:26;4.25;;;1.10;;
80842;SDS011;70255;53.686;10.778;2023-06-04T13:41:51;2.42;;;1.00;;
80842;SDS011;70255;53.686;10.778;2023-06-04T13:44:16;2.13;;;1.00;;
80842;SDS011;70255;53.686;10.778;2023-06-04T13:46:42;3.38;;;1.58;;
80842;SDS011;70255;53.686;10.778;2023-06-04T13:49:07;2.78;;;1.08;;
80842;SDS011;70255;53.686;10.778;2023-06-04T13:51:32;1.87;;;1.20;;
80842;SDS011;70255;53.686;10.778;2023-06-04T13:53:58;4.40;;;1.30;;
80842;SDS011;70255;53.686;10.778;2023-06-04T13:56:23;1.70;;;0.93;;
80842;SDS011;70255;53.686;10.778;2023-06-04T13:58:50;3.10;;;0.93;;
80842;SDS011;70255;53.686;10.778;2023-06-04T14:01:15;2.27;;;1.00;;
80842;SDS011;70255;53.686;10.778;2023-06-04T14:03:41;2.45;;;1.15;;
80842;SDS011;70255;53.686;10.778;2023-06-04T14:06:06;3.33;;;1.20;;
80842;SDS011;70255;53.686;10.778;2023-06-04T14:08:32;3.77;;;1.03;;
80842;SDS011;70255;53.686;10.778;2023-06-04T14:10:57;1.80;;;0.75;;
80842;SDS011;70255;53.686;10.778;2023-06-04T14:13:23;3.20;;;1.00;;
80842;SDS011;70255;53.686;10.778;2023-06-04T14:15:48;4.53;;;1.70;;
80842;SDS011;70255;53.686;10.778;2023-06-04T14:18:13;2.50;;;1.30;;
80842;SDS011;70255;53.686;10.778;2023-06-04T14:20:38;2.37;;;1.03;;
80842;SDS011;70255;53.686;10.778;2023-06-04T14:23:03;2.60;;;1.00;;
80842;SDS011;70255;53.686;10.778;2023-06-04T14:25:29;3.40;;;1.40;;
80842;SDS011;70255;53.686;10.778;2023-06-04T14:27:54;1.90;;;0.97;;
80842;SDS011;70255;53.686;10.778;2023-06-04T14:30:19;4.40;;;1.40;;
80842;SDS011;70255;53.686;10.778;2023-06-04T14:32:44;2.37;;;1.00;;
80842;SDS011;70255;53.686;10.778;2023-06-04T14:35:10;5.30;;;1.07;;
80842;SDS011;70255;53.686;10.778;2023-06-04T14:37:35;4.43;;;1.27;;
80842;SDS011;70255;53.686;10.778;2023-06-04T14:40:00;2.47;;;1.10;;
80842;SDS011;70255;53.686;10.778;2023-06-04T14:42:25;3.63;;;0.97;;